Flight Track Log - Related Links

Times and Time Zones

All times are in EDT time to prevent confusion due to time zone crossing. See the USC105 flight status page for this flight to view local times or setup timezone preferences in your user account.

Time Position Orientation Groundspeed Altitude Reporting Facility
EDT Latitude Longitude Course Direction KTS MPH feet Rate Location/Type
Fri 12:15:16 AM 42.2400 -83.5703 263° West 102 117 1,900  Level Cleveland Center
Fri 12:16:16 AM 42.2328 -83.6119 257° West 115 132 2,900 992 Climbing Cleveland Center
Fri 12:17:23 AM 42.2292 -83.6622 264° West 120 138 4,000 984 Climbing Cleveland Center
Fri 12:18:24 AM 42.2258 -83.7069 264° West 121 139 5,000 991 Climbing Cleveland Center
Fri 12:19:18 AM 42.2269 -83.7492 272° West 121 139 5,900 411 Climbing Cleveland Center
Fri 12:20:50 AM 42.2219 -83.8253 265° West 143 165 6,000 39 Climbing Chicago Center
Fri 12:21:51 AM 42.2183 -83.8925 266° West 162 186 6,000  Level Chicago Center
Fri 12:22:51 AM 42.2136 -83.9553 264° West 168 193 6,000 -50 Level Chicago Center
Fri 12:23:52 AM 42.2100 -84.0214 266° West 171 197 5,900  Descending Chicago Center
Fri 12:24:52 AM 42.2058 -84.0864 265° West 173 199 6,000 50 Climbing Chicago Center
Fri 12:25:53 AM 42.2014 -84.1511 265° West 174 200 6,000  Level Chicago Center
Fri 12:26:53 AM 42.1983 -84.2164 266° West 174 200 6,000  Level Chicago Center
Fri 12:27:54 AM 42.1950 -84.2811 266° West 174 200 6,000  Level Chicago Center
Fri 12:28:54 AM 42.1900 -84.3478 264° West 178 205 6,000  Level Chicago Center
Fri 12:29:55 AM 42.1875 -84.4122 267° West 174 200 6,000  Level Chicago Center
Fri 12:30:55 AM 42.1831 -84.4897 266° West 173 199 6,000  Level Chicago Center
Fri 12:31:56 AM 42.1797 -84.5542 266° West 179 206 6,000  Level Chicago Center
Fri 12:32:56 AM 42.1753 -84.6192 265° West 177 204 6,000  Level Chicago Center
Fri 12:33:57 AM 42.1719 -84.6861 266° West 178 205 6,000  Level Chicago Center
Fri 12:34:57 AM 42.1686 -84.7517 266° West 178 205 6,000  Level Chicago Center
Fri 12:35:58 AM 42.1639 -84.8167 264° West 177 204 6,000  Level Chicago Center
Fri 12:36:58 AM 42.1606 -84.8817 266° West 176 203 6,000  Level Chicago Center
Fri 12:37:59 AM 42.1567 -84.9458 265° West 173 199 6,000  Level Chicago Center
Fri 12:38:59 AM 42.1519 -85.0111 264° West 176 203 6,000  Level Chicago Center
Fri 12:40:00 AM 42.1481 -85.0764 265° West 175 201 6,000  Level Chicago Center
Fri 12:41:00 AM 42.1439 -85.1422 265° West 177 204 6,000  Level Chicago Center
Fri 12:42:00 AM 42.1392 -85.2078 264° West 177 204 6,000  Level Chicago Center
Fri 12:43:01 AM 42.1361 -85.2739 266° West 178 205 6,000  Level Chicago Center
Fri 12:44:01 AM 42.1319 -85.3394 265° West 177 204 6,000  Level Chicago Center
Fri 12:45:02 AM 42.1269 -85.4047 264° West 177 204 6,000  Level Chicago Center
Fri 12:46:02 AM 42.1228 -85.4706 265° West 177 204 6,000  Level Chicago Center
Fri 12:47:02 AM 42.1181 -85.5489 265° West 177 204 6,000  Level Chicago Center
Fri 12:48:03 AM 42.1136 -85.6150 265° West 177 204 6,000  Level Chicago Center
Fri 12:49:03 AM 42.1094 -85.6811 265° West 178 205 6,000  Level Chicago Center
Fri 12:50:04 AM 42.1050 -85.7467 265° West 177 204 6,000  Level Chicago Center
Fri 12:51:04 AM 42.0989 -85.8117 263° West 176 203 6,000  Level Chicago Center
Fri 12:52:04 AM 42.0953 -85.8783 266° West 178 205 6,000  Level Chicago Center
Fri 12:53:05 AM 42.0903 -85.9442 264° West 178 205 6,000  Level Chicago Center
Fri 12:54:05 AM 42.0861 -86.0094 265° West 177 204 6,000  Level Chicago Center
Fri 12:55:06 AM 42.0819 -86.0753 265° West 176 203 6,000  Level Chicago Center
Fri 12:56:06 AM 42.0761 -86.1411 263° West 177 204 6,000  Level Chicago Center
Fri 12:57:06 AM 42.0719 -86.2067 265° West 178 205 6,000  Level Chicago Center
Fri 12:58:07 AM 42.0669 -86.2717 264° West 176 203 6,000  Level Chicago Center
Fri 12:59:07 AM 42.0628 -86.3367 265° West 176 203 6,000  Level Chicago Center
Fri 01:00:07 AM 42.0578 -86.4019 264° West 176 203 6,000  Level Chicago Center
Fri 01:01:08 AM 42.0522 -86.4658 263° West 173 199 6,000  Level Chicago Center
Fri 01:02:08 AM 42.0481 -86.5317 265° West 175 201 6,000  Level Chicago Center
Fri 01:03:08 AM 42.0439 -86.5964 265° West 175 201 6,000  Level Chicago Center
Fri 01:04:08 AM 42.0386 -86.6606 264° West 174 200 6,000  Level Chicago Center
Fri 01:05:09 AM 42.0342 -86.7258 265° West 170 196 6,000  Level Chicago Center
Fri 01:06:09 AM 42.0297 -86.7908 265° West 176 203 6,000  Level Chicago Center
Fri 01:07:09 AM 42.0242 -86.8528 263° West 170 196 6,000  Level Chicago Center
Fri 01:08:10 AM 42.0189 -86.9178 264° West 175 201 6,000  Level Chicago Center
Fri 01:09:10 AM 42.0147 -86.9800 265° West 172 198 6,000  Level Chicago Center
Fri 01:10:10 AM 42.0092 -87.0428 263° West 171 197 6,000  Level Chicago Center
Fri 01:11:10 AM 42.0039 -87.1053 264° West 170 196 6,000  Level Chicago Center
Fri 01:12:11 AM 41.9986 -87.1683 264° West 171 197 6,000  Level Chicago Center
Fri 01:13:11 AM 41.9942 -87.2308 265° West 170 196 6,000  Level Chicago Center
Fri 01:14:11 AM 41.9881 -87.2922 262° West 168 193 6,000  Level Chicago Center
Fri 01:15:11 AM 41.9825 -87.3667 264° West 168 193 6,000  Level Chicago Center
Fri 01:15:43 AM 41.9833 -87.4000 272° West 168 193 6,000  Level Chicago TRACON
Fri 01:16:44 AM 41.9667 -87.4667 251° West 168 193 6,000  Level Chicago TRACON
Fri 01:17:38 AM 41.9667 -87.5167 270° West 169 194 6,000  Level Chicago TRACON
Fri 01:18:38 AM 41.9667 -87.5833 270° West 169 194 6,000  Level Chicago TRACON
Fri 01:19:38 AM 41.9667 -87.6500 270° West 166 191 6,000  Level Chicago TRACON
Fri 01:20:38 AM 41.9500 -87.7000 246° West 165 190 6,000  Level Chicago TRACON
Fri 01:21:38 AM 41.9500 -87.7667 270° West 161 185 6,000  Level Chicago TRACON
Fri 01:22:38 AM 41.9500 -87.8167 270° West 155 178 6,000 -50 Level Chicago TRACON
Fri 01:23:38 AM 41.9333 -87.8833 251° West 155 178 5,900 -650 Descending Chicago TRACON
Fri 01:24:38 AM 41.9333 -87.9500 270° West 186 214 4,700 -1,000 Descending Chicago TRACON
Fri 01:25:38 AM 41.9333 -88.0000 270° West 165 190 3,900 -1,000 Descending Chicago TRACON
Fri 01:26:38 AM 41.9167 -88.0667 251° West 173 199 2,700 -789 Descending Chicago TRACON
Fri 01:27:32 AM 41.9167 -88.1167 270° West 155 178 2,400 -313 Descending Chicago TRACON
Fri 01:28:14 AM 41.9081 -88.1533 252° West 166 191 2,200 -529 Descending Chicago Center
Fri 01:29:14 AM 41.9067 -88.1975 268° West 144 166 1,500 -650 Descending Chicago Center
Fri 01:30:14 AM 41.9119 -88.2467 278° West 132 152 900 -600 Descending Chicago Center

Login

Don't have an account? Register now (free) for customized features, flight alerts, and more!